createdAt,value
2023-03-12T00:00:36.413Z,1009.49
2023-03-12T00:02:35.331Z,1009.55
2023-03-12T00:04:35.698Z,1009.55
2023-03-12T00:06:44.709Z,1009.56
2023-03-12T00:08:35.671Z,1009.56
2023-03-12T00:10:36.264Z,1009.45
2023-03-12T00:12:35.285Z,1009.45
2023-03-12T00:14:35.940Z,1009.41
2023-03-12T00:16:35.724Z,1009.41
2023-03-12T00:18:35.844Z,1009.27
2023-03-12T00:20:35.423Z,1009.27
2023-03-12T00:22:36.045Z,1009.28
2023-03-12T00:24:35.456Z,1009.28
2023-03-12T00:26:35.895Z,1009.09
2023-03-12T00:28:35.477Z,1009.09
2023-03-12T00:30:35.972Z,1009.09
2023-03-12T00:32:35.518Z,1009.09
2023-03-12T00:34:35.762Z,1009.01
2023-03-12T00:36:35.284Z,1009.01
2023-03-12T00:38:35.608Z,1009.11
2023-03-12T00:40:35.157Z,1009.11
2023-03-12T00:42:35.510Z,1008.92
2023-03-12T00:44:36.095Z,1008.92
2023-03-12T00:46:36.174Z,1008.98
2023-03-12T00:48:35.382Z,1008.98
2023-03-12T00:50:35.968Z,1008.95
2023-03-12T00:52:35.566Z,1008.95
2023-03-12T00:54:35.961Z,1008.97
2023-03-12T00:56:35.396Z,1008.97
2023-03-12T00:58:35.742Z,1009.05
2023-03-12T01:00:41.055Z,1009.05
2023-03-12T01:02:35.794Z,1009.09
2023-03-12T01:04:36.376Z,1009.09
2023-03-12T01:06:35.527Z,1009.02
2023-03-12T01:08:35.958Z,1009.02
2023-03-12T01:10:35.469Z,1009.02
2023-03-12T01:12:35.732Z,1009.02
2023-03-12T01:14:35.290Z,1008.94
2023-03-12T01:16:36.109Z,1008.94
2023-03-12T01:18:35.984Z,1008.88
2023-03-12T01:20:35.517Z,1008.88
2023-03-12T01:22:35.874Z,1008.8
2023-03-12T01:24:35.224Z,1008.8
2023-03-12T01:26:35.485Z,1008.72
2023-03-12T01:28:36.081Z,1008.72
2023-03-12T01:30:35.618Z,1008.73
2023-03-12T01:32:35.298Z,1008.73
2023-03-12T01:34:35.638Z,1008.78
2023-03-12T01:36:36.538Z,1008.78
2023-03-12T01:38:35.717Z,1008.61
2023-03-12T01:40:36.039Z,1008.61
2023-03-12T01:42:35.375Z,1008.49
2023-03-12T01:44:35.877Z,1008.49
2023-03-12T01:46:35.743Z,1008.63
2023-03-12T01:48:35.648Z,1008.63
2023-03-12T01:50:35.332Z,1008.46
2023-03-12T01:52:35.776Z,1008.46
2023-03-12T01:54:35.024Z,1008.34
2023-03-12T01:56:35.712Z,1008.34
2023-03-12T01:58:35.256Z,1008.4
2023-03-12T02:00:40.492Z,1008.4
2023-03-12T02:02:35.163Z,1008.32
2023-03-12T02:04:36.131Z,1008.32
2023-03-12T02:06:35.186Z,1008.24
2023-03-12T02:08:35.723Z,1008.24
2023-03-12T02:10:35.272Z,1008.03
2023-03-12T02:12:35.795Z,1008.03
2023-03-12T02:14:35.061Z,1007.91
2023-03-12T02:16:35.793Z,1007.91
2023-03-12T02:18:35.136Z,1007.77
2023-03-12T02:20:35.760Z,1007.77
2023-03-12T02:22:35.266Z,1007.83
2023-03-12T02:24:35.704Z,1007.83
2023-03-12T02:26:35.028Z,1007.76
2023-03-12T02:28:35.650Z,1007.76
2023-03-12T02:30:35.213Z,1007.71
2023-03-12T02:32:35.902Z,1007.71
2023-03-12T02:34:35.024Z,1007.74
2023-03-12T02:36:35.955Z,1007.74
2023-03-12T02:38:35.104Z,1007.57
2023-03-12T02:40:35.832Z,1007.57
2023-03-12T02:42:35.092Z,1007.67
2023-03-12T02:44:35.914Z,1007.67
2023-03-12T02:46:35.589Z,1007.61
2023-03-12T02:48:35.842Z,1007.61
2023-03-12T02:50:35.316Z,1007.49
2023-03-12T02:52:35.773Z,1007.49
2023-03-12T02:54:35.149Z,1007.41
2023-03-12T02:56:35.739Z,1007.41
2023-03-12T02:58:35.416Z,1007.55
2023-03-12T03:00:40.301Z,1007.55
2023-03-12T03:02:36.004Z,1007.42
2023-03-12T03:04:35.636Z,1007.42
2023-03-12T03:06:35.875Z,1007.3
2023-03-12T03:08:35.305Z,1007.3
2023-03-12T03:10:35.795Z,1007.17
2023-03-12T03:12:35.342Z,1007.17
2023-03-12T03:14:36.070Z,1007.13
2023-03-12T03:16:35.651Z,1007.13
2023-03-12T03:18:35.982Z,1007.18
2023-03-12T03:20:35.505Z,1007.18
2023-03-12T03:22:36.187Z,1006.98
2023-03-12T03:24:35.473Z,1006.98
2023-03-12T03:26:35.208Z,1006.89
2023-03-12T03:28:35.817Z,1006.89
2023-03-12T03:30:35.176Z,1006.89
2023-03-12T03:32:35.897Z,1006.86
2023-03-12T03:34:35.266Z,1006.86
2023-03-12T03:36:35.921Z,1006.82
2023-03-12T03:38:35.276Z,1006.82
2023-03-12T03:40:35.808Z,1006.72
2023-03-12T03:42:35.302Z,1006.72
2023-03-12T03:44:35.945Z,1006.63
2023-03-12T03:46:35.592Z,1006.63
2023-03-12T03:48:35.744Z,1006.62
2023-03-12T03:50:35.515Z,1006.62
2023-03-12T03:52:36.089Z,1006.49
2023-03-12T03:54:35.444Z,1006.49
2023-03-12T03:56:35.837Z,1006.38
2023-03-12T03:58:35.441Z,1006.38
2023-03-12T04:00:44.277Z,1006.37
2023-03-12T04:02:35.178Z,1006.37
2023-03-12T04:04:35.656Z,1006.4
2023-03-12T04:06:35.206Z,1006.4
2023-03-12T04:08:35.776Z,1006.23
2023-03-12T04:10:35.322Z,1006.23
2023-03-12T04:12:35.849Z,1006.31
2023-03-12T04:14:35.441Z,1006.31
2023-03-12T04:16:36.265Z,1006.26
2023-03-12T04:18:35.702Z,1006.26
2023-03-12T04:20:35.165Z,1006.2
2023-03-12T04:22:35.718Z,1006.2
2023-03-12T04:24:35.995Z,1006.26
2023-03-12T04:26:35.476Z,1006.26
2023-03-12T04:28:35.986Z,1006.03
2023-03-12T04:30:35.486Z,1006.03
2023-03-12T04:32:35.469Z,1005.93
2023-03-12T04:34:37.196Z,1005.93
2023-03-12T04:36:35.483Z,1005.82
2023-03-12T04:38:35.868Z,1005.82
2023-03-12T04:40:35.262Z,1005.86
2023-03-12T04:42:35.948Z,1005.86
2023-03-12T04:44:35.647Z,1005.66
2023-03-12T04:46:36.166Z,1005.66
2023-03-12T04:48:35.432Z,1005.78
2023-03-12T04:50:36.172Z,1005.78
2023-03-12T04:52:35.717Z,1005.81
2023-03-12T04:54:35.137Z,1005.81
2023-03-12T04:56:35.701Z,1005.9
2023-03-12T04:58:35.151Z,1005.9
2023-03-12T05:00:43.149Z,1005.87
2023-03-12T05:02:35.869Z,1005.87
2023-03-12T05:04:35.635Z,1005.8
2023-03-12T05:06:35.879Z,1005.8
2023-03-12T05:08:35.443Z,1005.78
2023-03-12T05:10:35.955Z,1005.78
2023-03-12T05:12:35.323Z,1005.74
2023-03-12T05:14:36.057Z,1005.74
2023-03-12T05:16:35.769Z,1005.71
2023-03-12T05:18:35.971Z,1005.71
2023-03-12T05:20:35.398Z,1005.69
2023-03-12T05:22:36.046Z,1005.69
2023-03-12T05:24:35.403Z,1005.68
2023-03-12T05:26:36.046Z,1005.68
2023-03-12T05:28:35.513Z,1005.65
2023-03-12T05:30:35.953Z,1005.65
2023-03-12T05:32:35.517Z,1005.67
2023-03-12T05:34:35.946Z,1005.67
2023-03-12T05:36:35.413Z,1005.59
2023-03-12T05:38:35.896Z,1005.59
2023-03-12T05:40:35.450Z,1005.66
2023-03-12T05:42:35.893Z,1005.66
2023-03-12T05:44:35.379Z,1005.66
2023-03-12T05:46:36.205Z,1005.66
2023-03-12T05:48:35.593Z,1005.45
2023-03-12T05:50:35.358Z,1005.45
2023-03-12T05:52:35.904Z,1005.45
2023-03-12T05:54:35.220Z,1005.45
2023-03-12T05:56:36.025Z,1005.43
2023-03-12T05:58:35.507Z,1005.43
2023-03-12T06:00:39.626Z,1005.43
2023-03-12T06:02:36.013Z,1005.43
2023-03-12T06:04:35.935Z,1005.52
2023-03-12T06:06:35.649Z,1005.52
2023-03-12T06:08:36.092Z,1005.49
2023-03-12T06:10:35.391Z,1005.49
2023-03-12T06:12:36.095Z,1005.32
2023-03-12T06:14:35.675Z,1005.32
2023-03-12T06:16:36.092Z,1005.43
2023-03-12T06:18:35.461Z,1005.43
2023-03-12T06:20:36.048Z,1005.23
2023-03-12T06:22:35.530Z,1005.23
2023-03-12T06:24:35.251Z,1005.17
2023-03-12T06:26:35.586Z,1005.17
2023-03-12T06:28:36.100Z,1005.02
2023-03-12T06:30:35.465Z,1005.02
2023-03-12T06:32:36.206Z,1004.98
2023-03-12T06:34:35.550Z,1004.98
2023-03-12T06:36:36.169Z,1005.05
2023-03-12T06:38:35.449Z,1005.05
2023-03-12T06:40:36.153Z,1004.99
2023-03-12T06:42:35.660Z,1004.99
2023-03-12T06:44:35.947Z,1004.9
2023-03-12T06:46:35.818Z,1004.9
2023-03-12T06:48:35.799Z,1004.98
2023-03-12T06:50:35.400Z,1005.04
2023-03-12T06:52:35.745Z,1005.04
2023-03-12T06:54:35.102Z,1005
2023-03-12T06:56:35.634Z,1005
2023-03-12T06:58:35.261Z,1005
2023-03-12T07:00:39.600Z,1005
2023-03-12T07:02:35.522Z,1005.23
2023-03-12T07:04:35.910Z,1005.23
2023-03-12T07:06:35.317Z,1005.05
2023-03-12T07:08:35.964Z,1005.05
2023-03-12T07:10:35.419Z,1005.04
2023-03-12T07:12:35.966Z,1005.04
2023-03-12T07:14:35.594Z,1005.17
2023-03-12T07:16:36.219Z,1005.17
2023-03-12T07:18:35.556Z,1005.26
2023-03-12T07:20:36.206Z,1005.26
2023-03-12T07:22:35.439Z,1005.21
2023-03-12T07:24:35.922Z,1005.21
2023-03-12T07:26:35.236Z,1005.05
2023-03-12T07:28:35.825Z,1005.05
2023-03-12T07:30:35.098Z,1005.12
2023-03-12T07:32:35.750Z,1005.12
2023-03-12T07:34:36.090Z,1005.17
2023-03-12T07:36:36.418Z,1005.17
2023-03-12T07:38:35.742Z,1005.03
2023-03-12T07:40:35.696Z,1005.03
2023-03-12T07:42:35.537Z,1005.12
2023-03-12T07:44:35.808Z,1005.12
2023-03-12T07:46:35.326Z,1005.16
2023-03-12T07:48:35.947Z,1005.16
2023-03-12T07:50:35.475Z,1005.3
2023-03-12T07:52:36.319Z,1005.3
2023-03-12T07:54:35.620Z,1005.19
2023-03-12T07:56:36.510Z,1005.19
2023-03-12T07:58:36.023Z,1005.12
2023-03-12T08:00:39.665Z,1005.12
2023-03-12T08:02:36.572Z,1005.09
2023-03-12T08:04:36.315Z,1005.09
2023-03-12T08:06:36.175Z,1005.2
2023-03-12T08:08:35.469Z,1005.2
2023-03-12T08:10:36.415Z,1005.21
2023-03-12T08:12:35.750Z,1005.21
2023-03-12T08:14:36.166Z,1005.23
2023-03-12T08:16:35.661Z,1005.23
2023-03-12T08:18:36.243Z,1005.21
2023-03-12T08:20:35.869Z,1005.21
2023-03-12T08:22:35.191Z,1005.32
2023-03-12T08:24:35.644Z,1005.32
2023-03-12T08:26:35.309Z,1005.28
2023-03-12T08:28:35.865Z,1005.28
2023-03-12T08:30:35.498Z,1005.19
2023-03-12T08:32:39.979Z,1005.19
2023-03-12T08:34:35.591Z,1005.34
2023-03-12T08:36:35.142Z,1005.34
2023-03-12T08:38:35.620Z,1005.43
2023-03-12T08:40:35.221Z,1005.43
2023-03-12T08:42:35.711Z,1005.41
2023-03-12T08:44:35.067Z,1005.41
2023-03-12T08:46:35.791Z,1005.4
2023-03-12T08:48:36.092Z,1005.4
2023-03-12T08:50:35.449Z,1005.34
2023-03-12T08:52:35.964Z,1005.34
2023-03-12T08:54:35.538Z,1005.44
2023-03-12T08:56:35.924Z,1005.44
2023-03-12T08:58:35.396Z,1005.5
2023-03-12T09:00:39.548Z,1005.5
2023-03-12T09:02:35.383Z,1005.33
2023-03-12T09:04:36.144Z,1005.33
2023-03-12T09:06:35.184Z,1005.44
2023-03-12T09:08:35.616Z,1005.44
2023-03-12T09:10:36.097Z,1005.5
2023-03-12T09:12:35.714Z,1005.5
2023-03-12T09:15:18.892Z,1005.55
2023-03-12T09:16:35.927Z,1005.55
2023-03-12T09:18:36.635Z,1005.6
2023-03-12T09:20:35.247Z,1005.6
2023-03-12T09:22:35.582Z,1005.62
2023-03-12T09:24:35.188Z,1005.62
2023-03-12T09:26:35.661Z,1005.7
2023-03-12T09:28:39.125Z,1005.7
2023-03-12T09:30:35.681Z,1005.67
2023-03-12T09:32:39.640Z,1005.67
2023-03-12T09:34:35.528Z,1005.73
2023-03-12T09:36:35.986Z,1005.73
2023-03-12T09:38:35.700Z,1005.77
2023-03-12T09:40:36.168Z,1005.77
2023-03-12T09:42:35.375Z,1005.75
2023-03-12T09:44:35.790Z,1005.75
2023-03-12T09:46:35.453Z,1005.63
2023-03-12T09:48:35.892Z,1005.63
2023-03-12T09:50:35.212Z,1005.65
2023-03-12T09:52:35.573Z,1005.65
2023-03-12T09:54:35.354Z,1005.64
2023-03-12T09:56:35.878Z,1005.64
2023-03-12T09:58:35.147Z,1005.58
2023-03-12T10:00:42.026Z,1005.62
2023-03-12T10:02:35.899Z,1005.62
2023-03-12T10:04:52.368Z,1005.77
2023-03-12T10:06:35.756Z,1005.77
2023-03-12T10:08:57.279Z,1005.74
2023-03-12T10:10:35.509Z,1005.74
2023-03-12T10:12:35.939Z,1005.78
2023-03-12T10:14:45.600Z,1005.78
2023-03-12T10:16:36.215Z,1005.8
2023-03-12T10:18:36.335Z,1005.8
2023-03-12T10:20:35.876Z,1005.82
2023-03-12T10:22:35.292Z,1005.82
2023-03-12T10:24:36.762Z,1005.83
2023-03-12T10:26:35.440Z,1005.83
2023-03-12T10:28:35.734Z,1005.65
2023-03-12T10:30:35.571Z,1005.65
2023-03-12T10:32:36.069Z,1005.74
2023-03-12T10:34:35.387Z,1005.74
2023-03-12T10:36:35.991Z,1005.87
2023-03-12T10:38:35.260Z,1005.87
2023-03-12T10:40:35.909Z,1005.87
2023-03-12T10:42:35.215Z,1005.87
2023-03-12T10:44:35.823Z,1005.96
2023-03-12T10:46:35.630Z,1005.96
2023-03-12T10:48:36.003Z,1005.82
2023-03-12T10:50:35.367Z,1005.82
2023-03-12T10:52:36.085Z,1005.81
2023-03-12T10:54:35.495Z,1005.81
2023-03-12T10:56:35.339Z,1006.06
2023-03-12T10:58:35.514Z,1006.06
2023-03-12T11:00:42.698Z,1006.17
2023-03-12T11:02:36.008Z,1006.17
2023-03-12T11:04:36.047Z,1006.23
2023-03-12T11:06:35.539Z,1006.23
2023-03-12T11:08:36.091Z,1006.28
2023-03-12T11:10:37.086Z,1006.28
2023-03-12T11:12:35.107Z,1006.08
2023-03-12T11:14:35.816Z,1006.08
2023-03-12T11:16:35.515Z,1006.19
2023-03-12T11:18:35.642Z,1006.19
2023-03-12T11:20:35.993Z,1006.24
2023-03-12T11:22:35.316Z,1006.24
2023-03-12T11:24:35.690Z,1006.28
2023-03-12T11:26:36.014Z,1006.28
2023-03-12T11:28:35.450Z,1006.27
2023-03-12T11:30:35.979Z,1006.27
2023-03-12T11:32:35.447Z,1006.11
2023-03-12T11:34:35.458Z,1006.11
2023-03-12T11:36:35.951Z,1006.04
2023-03-12T11:38:35.492Z,1006.04
2023-03-12T11:40:35.999Z,1005.98
2023-03-12T11:42:35.632Z,1005.98
2023-03-12T11:44:35.981Z,1005.97
2023-03-12T11:46:35.595Z,1005.97
2023-03-12T11:48:36.184Z,1005.86
2023-03-12T11:50:35.249Z,1005.86
2023-03-12T11:52:36.055Z,1005.75
2023-03-12T11:54:35.352Z,1005.75
2023-03-12T11:56:35.733Z,1005.9
2023-03-12T11:58:35.158Z,1005.9
2023-03-12T12:00:35.806Z,1005.72
2023-03-12T12:02:35.679Z,1005.72
2023-03-12T12:04:35.686Z,1005.82
2023-03-12T12:06:35.236Z,1005.82
2023-03-12T12:08:35.569Z,1005.65
2023-03-12T12:10:36.034Z,1005.65
2023-03-12T12:12:39.242Z,1005.76
2023-03-12T12:14:36.166Z,1005.76
2023-03-12T12:16:35.777Z,1005.79
2023-03-12T12:18:36.122Z,1005.79
2023-03-12T12:20:35.503Z,1005.8
2023-03-12T12:22:36.525Z,1005.8
2023-03-12T12:24:36.214Z,1005.87
2023-03-12T12:26:35.914Z,1005.87
2023-03-12T12:28:35.420Z,1005.82
2023-03-12T12:30:35.774Z,1005.82
2023-03-12T12:32:35.549Z,1005.55
2023-03-12T12:34:35.731Z,1005.55
2023-03-12T12:36:36.258Z,1005.57
2023-03-12T12:38:35.647Z,1005.57
2023-03-12T12:40:35.279Z,1005.25
2023-03-12T12:42:35.801Z,1005.25
2023-03-12T12:44:35.310Z,1005.32
2023-03-12T12:46:36.351Z,1005.32
2023-03-12T12:48:35.380Z,1005.25
2023-03-12T12:50:35.956Z,1005.25
2023-03-12T12:52:35.445Z,1005.35
2023-03-12T12:54:35.987Z,1005.35
2023-03-12T12:56:38.082Z,1005.4
2023-03-12T12:58:35.105Z,1005.4
2023-03-12T13:00:39.205Z,1005.41
2023-03-12T13:02:35.172Z,1005.41
2023-03-12T13:04:35.832Z,1005.17
2023-03-12T13:06:35.137Z,1005.17
2023-03-12T13:08:35.577Z,1005.42
2023-03-12T13:10:35.990Z,1005.42
2023-03-12T13:12:35.422Z,1005.16
2023-03-12T13:14:36.024Z,1005.16
2023-03-12T13:16:35.657Z,1005.34
2023-03-12T13:18:37.834Z,1005.34
2023-03-12T13:20:36.000Z,1005.37
2023-03-12T13:22:36.038Z,1005.37
2023-03-12T13:24:35.450Z,1005.21
2023-03-12T13:26:35.723Z,1005.3
2023-03-12T13:28:35.333Z,1005.3
2023-03-12T13:30:35.827Z,1005.42
2023-03-12T13:32:35.522Z,1005.42
2023-03-12T13:34:39.388Z,1005.2
2023-03-12T13:36:35.809Z,1005.2
2023-03-12T13:38:35.147Z,1005.36
2023-03-12T13:40:35.708Z,1005.36
2023-03-12T13:42:35.148Z,1005.4
2023-03-12T13:44:35.537Z,1005.4
2023-03-12T13:46:36.283Z,1005.41
2023-03-12T13:48:35.471Z,1005.41
2023-03-12T13:50:36.100Z,1005.49
2023-03-12T13:52:35.604Z,1005.49
2023-03-12T13:54:36.017Z,1005.53
2023-03-12T13:56:35.419Z,1005.53
2023-03-12T13:58:36.043Z,1005.54
2023-03-12T14:00:40.417Z,1005.54
2023-03-12T14:02:35.438Z,1005.68
2023-03-12T14:04:35.857Z,1005.68
2023-03-12T14:06:35.340Z,1005.89
2023-03-12T14:08:35.629Z,1005.89
2023-03-12T14:10:35.226Z,1005.94
2023-03-12T14:12:36.124Z,1005.94
2023-03-12T14:14:35.268Z,1005.89
2023-03-12T14:16:36.017Z,1005.89
2023-03-12T14:18:35.185Z,1005.74
2023-03-12T14:20:35.872Z,1005.74
2023-03-12T14:22:35.168Z,1005.9
2023-03-12T14:24:35.633Z,1005.9
2023-03-12T14:26:38.014Z,1005.8
2023-03-12T14:28:35.817Z,1005.8
2023-03-12T14:30:35.438Z,1005.81
2023-03-12T14:32:35.759Z,1005.81
2023-03-12T14:34:35.058Z,1006
2023-03-12T14:36:35.791Z,1006
2023-03-12T14:38:35.146Z,1005.82
2023-03-12T14:40:35.675Z,1005.82
2023-03-12T14:42:35.198Z,1005.84
2023-03-12T14:44:35.661Z,1005.84
2023-03-12T14:46:35.388Z,1005.73
2023-03-12T14:48:35.577Z,1005.73
2023-03-12T14:50:36.059Z,1005.93
2023-03-12T14:52:35.561Z,1005.93
2023-03-12T14:54:36.335Z,1005.8
2023-03-12T14:56:35.510Z,1005.8
2023-03-12T14:58:35.986Z,1005.71
2023-03-12T15:00:39.016Z,1005.71
2023-03-12T15:02:36.204Z,1005.62
2023-03-12T15:04:35.584Z,1005.62
2023-03-12T15:06:36.109Z,1005.51
2023-03-12T15:08:35.109Z,1005.51
2023-03-12T15:10:35.537Z,1005.52
2023-03-12T15:12:36.067Z,1005.52
2023-03-12T15:14:35.619Z,1005.43
2023-03-12T15:16:36.281Z,1005.43
2023-03-12T15:18:35.489Z,1005.51
2023-03-12T15:20:35.335Z,1005.51
2023-03-12T15:22:35.817Z,1005.44
2023-03-12T15:24:35.409Z,1005.44
2023-03-12T15:26:35.944Z,1005.48
2023-03-12T15:28:35.408Z,1005.48
2023-03-12T15:30:35.070Z,1005.36
2023-03-12T15:32:36.522Z,1005.36
2023-03-12T15:34:35.776Z,1005.57
2023-03-12T15:36:36.486Z,1005.57
2023-03-12T15:38:35.380Z,1005.34
2023-03-12T15:40:36.013Z,1005.34
2023-03-12T15:42:35.810Z,1005.21
2023-03-12T15:44:35.221Z,1005.21
2023-03-12T15:46:36.292Z,1005.23
2023-03-12T15:48:35.282Z,1005.23
2023-03-12T15:50:35.951Z,1005.2
2023-03-12T15:52:35.228Z,1005.2
2023-03-12T15:54:35.835Z,1005.16
2023-03-12T15:56:35.272Z,1005.16
2023-03-12T15:58:36.021Z,1005.23
2023-03-12T16:00:39.437Z,1005.23
2023-03-12T16:02:35.876Z,1005.19
2023-03-12T16:04:36.071Z,1005.19
2023-03-12T16:06:35.501Z,1005.26
2023-03-12T16:08:35.897Z,1005.26
2023-03-12T16:10:35.365Z,1005.24
2023-03-12T16:12:35.971Z,1005.24
2023-03-12T16:14:35.328Z,1005.14
2023-03-12T16:16:36.167Z,1005.14
2023-03-12T16:18:35.190Z,1005.08
2023-03-12T16:20:35.742Z,1005.08
2023-03-12T16:22:36.012Z,1005.03
2023-03-12T16:24:35.591Z,1005.03
2023-03-12T16:26:35.984Z,1004.93
2023-03-12T16:28:35.494Z,1004.93
2023-03-12T16:30:35.176Z,1004.83
2023-03-12T16:32:35.931Z,1004.83
2023-03-12T16:34:35.198Z,1004.94
2023-03-12T16:36:35.859Z,1004.94
2023-03-12T16:38:35.971Z,1005.01
2023-03-12T16:40:45.443Z,1005.08
2023-03-12T16:42:36.624Z,1005.08
2023-03-12T16:44:35.528Z,1005.08
2023-03-12T16:46:36.277Z,1005.17
2023-03-12T16:48:35.928Z,1005.17
2023-03-12T16:50:35.877Z,1005.19
2023-03-12T16:52:35.429Z,1005.19
2023-03-12T16:54:45.501Z,1005.16
2023-03-12T16:56:35.524Z,1005.23
2023-03-12T16:58:35.974Z,1005.23
2023-03-12T17:00:39.180Z,1005.12
2023-03-12T17:02:35.395Z,1005.12
2023-03-12T17:04:36.291Z,1005.06
2023-03-12T17:06:35.539Z,1005.06
2023-03-12T17:08:36.345Z,1005.19
2023-03-12T17:10:35.559Z,1005.19
2023-03-12T17:12:35.866Z,1005.04
2023-03-12T17:14:35.225Z,1005.04
2023-03-12T17:16:35.942Z,1005.02
2023-03-12T17:18:35.069Z,1005.02
2023-03-12T17:20:35.564Z,1005.24
2023-03-12T17:22:35.781Z,1005.24
2023-03-12T17:24:35.152Z,1005.22
2023-03-12T17:26:35.592Z,1005.22
2023-03-12T17:28:35.899Z,1005.19
2023-03-12T17:30:35.344Z,1005.19
2023-03-12T17:32:35.825Z,1005.13
2023-03-12T17:34:35.129Z,1005.13
2023-03-12T17:36:35.652Z,1005.1
2023-03-12T17:38:35.916Z,1005.1
2023-03-12T17:40:36.010Z,1004.91
2023-03-12T17:42:35.505Z,1004.91
2023-03-12T17:44:37.993Z,1004.95
2023-03-12T17:46:35.835Z,1004.95
2023-03-12T17:48:35.976Z,1004.98
2023-03-12T17:50:35.499Z,1004.98
2023-03-12T17:52:35.956Z,1004.84
2023-03-12T17:54:35.318Z,1004.84
2023-03-12T17:56:35.662Z,1004.97
2023-03-12T17:58:35.290Z,1004.97
2023-03-12T18:00:38.960Z,1004.99
2023-03-12T18:02:35.245Z,1004.99
2023-03-12T18:04:35.814Z,1005.04
2023-03-12T18:06:35.120Z,1005.04
2023-03-12T18:08:35.643Z,1005.1
2023-03-12T18:10:36.211Z,1005.1
2023-03-12T18:12:35.613Z,1005
2023-03-12T18:14:35.910Z,1005
2023-03-12T18:16:35.894Z,1005
2023-03-12T18:18:36.000Z,1005
2023-03-12T18:20:49.296Z,1005.06
2023-03-12T18:22:36.209Z,1005.06
2023-03-12T18:24:47.554Z,1005.14
2023-03-12T18:26:35.859Z,1005.14
2023-03-12T18:28:35.261Z,1005.09
2023-03-12T18:30:35.743Z,1005.09
2023-03-12T18:32:35.322Z,1005.19
2023-03-12T18:34:35.795Z,1005.19
2023-03-12T18:36:35.176Z,1005.07
2023-03-12T18:38:35.742Z,1005.07
2023-03-12T18:40:35.270Z,1004.9
2023-03-12T18:42:35.621Z,1004.9
2023-03-12T18:44:36.040Z,1004.88
2023-03-12T18:46:35.810Z,1004.88
2023-03-12T18:48:35.825Z,1004.86
2023-03-12T18:50:35.347Z,1004.86
2023-03-12T18:52:35.789Z,1004.87
2023-03-12T18:54:36.217Z,1004.87
2023-03-12T18:56:35.768Z,1004.95
2023-03-12T18:58:35.232Z,1004.95
2023-03-12T19:00:39.253Z,1004.87
2023-03-12T19:02:36.416Z,1004.87
2023-03-12T19:04:35.842Z,1004.86
2023-03-12T19:06:49.425Z,1004.86
2023-03-12T19:08:35.269Z,1004.85
2023-03-12T19:10:36.148Z,1004.85
2023-03-12T19:12:45.373Z,1004.71
2023-03-12T19:14:36.024Z,1004.71
2023-03-12T19:16:36.270Z,1004.78
2023-03-12T19:18:35.554Z,1004.78
2023-03-12T19:20:35.911Z,1004.64
2023-03-12T19:22:35.446Z,1004.64
2023-03-12T19:24:36.052Z,1004.61
2023-03-12T19:26:35.608Z,1004.61
2023-03-12T19:28:35.093Z,1004.51
2023-03-12T19:30:35.576Z,1004.51
2023-03-12T19:32:44.861Z,1004.5
2023-03-12T19:34:35.437Z,1004.5
2023-03-12T19:36:36.037Z,1004.46
2023-03-12T19:38:35.447Z,1004.46
2023-03-12T19:40:36.111Z,1004.34
2023-03-12T19:42:35.349Z,1004.34
2023-03-12T19:44:35.841Z,1004.33
2023-03-12T19:46:35.543Z,1004.33
2023-03-12T19:48:35.796Z,1004.27
2023-03-12T19:50:35.581Z,1004.27
2023-03-12T19:52:35.878Z,1004.26
2023-03-12T19:54:35.283Z,1004.26
2023-03-12T19:56:35.727Z,1004.11
2023-03-12T19:58:35.222Z,1004.11
2023-03-12T20:00:39.604Z,1004.13
2023-03-12T20:02:36.323Z,1004.13
2023-03-12T20:04:36.064Z,1004.06
2023-03-12T20:06:35.229Z,1004.06
2023-03-12T20:08:35.625Z,1004.02
2023-03-12T20:10:35.320Z,1004.02
2023-03-12T20:12:35.748Z,1003.91
2023-03-12T20:14:35.243Z,1003.9
2023-03-12T20:16:35.892Z,1003.9
2023-03-12T20:18:35.436Z,1004.01
2023-03-12T20:20:35.798Z,1004.01
2023-03-12T20:22:35.239Z,1003.7
2023-03-12T20:24:35.652Z,1003.7
2023-03-12T20:26:35.986Z,1003.7
2023-03-12T20:28:35.444Z,1003.7
2023-03-12T20:30:35.939Z,1003.64
2023-03-12T20:32:35.895Z,1003.64
2023-03-12T20:34:35.947Z,1003.41
2023-03-12T20:36:35.456Z,1003.41
2023-03-12T20:38:35.739Z,1003.4
2023-03-12T20:40:35.251Z,1003.4
2023-03-12T20:42:35.700Z,1003.38
2023-03-12T20:44:36.024Z,1003.38
2023-03-12T20:46:35.905Z,1003.34
2023-03-12T20:48:36.049Z,1003.34
2023-03-12T20:50:35.463Z,1003.32
2023-03-12T20:52:35.871Z,1003.32
2023-03-12T20:54:35.408Z,1003.24
2023-03-12T20:56:35.998Z,1003.24
2023-03-12T20:58:35.313Z,1003.16
2023-03-12T21:00:39.244Z,1003.16
2023-03-12T21:02:35.638Z,1003.02
2023-03-12T21:04:35.956Z,1003.02
2023-03-12T21:06:35.321Z,1002.9
2023-03-12T21:08:35.629Z,1002.9
2023-03-12T21:10:35.333Z,1002.94
2023-03-12T21:12:35.722Z,1002.94
2023-03-12T21:14:35.288Z,1002.84
2023-03-12T21:16:35.937Z,1002.84
2023-03-12T21:18:35.574Z,1002.69
2023-03-12T21:20:35.568Z,1002.69
2023-03-12T21:22:36.061Z,1002.61
2023-03-12T21:24:35.493Z,1002.61
2023-03-12T21:26:35.924Z,1002.77
2023-03-12T21:28:35.348Z,1002.77
2023-03-12T21:30:36.088Z,1002.59
2023-03-12T21:32:35.828Z,1002.59
2023-03-12T21:34:35.356Z,1002.41
2023-03-12T21:36:36.072Z,1002.41
2023-03-12T21:38:35.374Z,1002.46
2023-03-12T21:40:35.986Z,1002.46
2023-03-12T21:42:35.753Z,1002.34
2023-03-12T21:44:38.617Z,1002.34
2023-03-12T21:46:36.150Z,1002.32
2023-03-12T21:48:35.459Z,1002.32
2023-03-12T21:50:35.677Z,1002.19
2023-03-12T21:52:35.181Z,1002.19
2023-03-12T21:54:35.725Z,1002.27
2023-03-12T21:56:35.403Z,1002.27
2023-03-12T21:58:35.830Z,1002.13
2023-03-12T22:00:39.197Z,1002.13
2023-03-12T22:02:38.841Z,1002.2
2023-03-12T22:04:35.737Z,1002.2
2023-03-12T22:06:35.872Z,1002.03
2023-03-12T22:08:35.431Z,1002.03
2023-03-12T22:10:36.025Z,1002.04
2023-03-12T22:12:35.441Z,1002.04
2023-03-12T22:14:35.928Z,1002
2023-03-12T22:16:35.912Z,1002
2023-03-12T22:18:35.836Z,1001.93
2023-03-12T22:20:35.407Z,1001.93
2023-03-12T22:22:35.805Z,1001.85
2023-03-12T22:24:35.477Z,1001.85
2023-03-12T22:26:35.930Z,1001.82
2023-03-12T22:28:37.200Z,1001.82
2023-03-12T22:30:36.029Z,1001.69
2023-03-12T22:32:35.777Z,1001.69
2023-03-12T22:34:35.044Z,1001.61
2023-03-12T22:36:35.737Z,1001.61
2023-03-12T22:38:35.565Z,1001.52
2023-03-12T22:40:35.937Z,1001.52
2023-03-12T22:42:35.344Z,1001.47
2023-03-12T22:44:35.857Z,1001.47
2023-03-12T22:46:35.704Z,1001.21
2023-03-12T22:48:35.892Z,1001.21
2023-03-12T22:50:35.476Z,1001.19
2023-03-12T22:52:35.889Z,1001.19
2023-03-12T22:54:35.483Z,1001.14
2023-03-12T22:56:36.008Z,1001.14
2023-03-12T22:58:35.335Z,1000.88
2023-03-12T23:00:37.381Z,1000.88
2023-03-12T23:02:35.735Z,1000.87
2023-03-12T23:04:36.280Z,1000.87
2023-03-12T23:06:35.928Z,1000.71
2023-03-12T23:08:35.350Z,1000.71
2023-03-12T23:10:35.941Z,1000.55
2023-03-12T23:12:35.346Z,1000.55
2023-03-12T23:14:35.814Z,1000.47
2023-03-12T23:16:35.890Z,1000.47
2023-03-12T23:18:35.971Z,1000.32
2023-03-12T23:20:35.463Z,1000.32
2023-03-12T23:22:35.859Z,1000.17
2023-03-12T23:24:35.473Z,1000.17
2023-03-12T23:26:36.093Z,1000.01
2023-03-12T23:28:35.329Z,1000.01
2023-03-12T23:30:35.330Z,1000.06
2023-03-12T23:32:36.057Z,1000.06
2023-03-12T23:34:35.496Z,999.84
2023-03-12T23:36:35.869Z,999.84
2023-03-12T23:38:37.486Z,999.6
2023-03-12T23:40:35.739Z,999.48
2023-03-12T23:42:35.317Z,999.48
2023-03-12T23:44:35.795Z,999.39
2023-03-12T23:46:35.772Z,999.39
2023-03-12T23:48:35.938Z,999.34
2023-03-12T23:50:35.467Z,999.34
2023-03-12T23:52:36.143Z,999.31
2023-03-12T23:54:35.571Z,999.31
2023-03-12T23:56:36.026Z,999.03
2023-03-12T23:58:35.648Z,999.03
